createdAt,value
2022-11-05T00:00:58.975Z,90.77
2022-11-05T00:02:19.051Z,90.79
2022-11-05T00:03:38.896Z,90.79
2022-11-05T00:04:59.070Z,90.78
2022-11-05T00:06:19.363Z,91.02
2022-11-05T00:07:42.109Z,90.94
2022-11-05T00:09:01.991Z,91.41
2022-11-05T00:10:21.044Z,91.20
2022-11-05T00:11:42.555Z,91.29
2022-11-05T00:13:02.583Z,90.89
2022-11-05T00:14:22.473Z,91.30
2022-11-05T00:15:42.696Z,91.42
2022-11-05T00:16:44.264Z,91.64
2022-11-05T00:17:45.800Z,91.69
2022-11-05T00:19:06.609Z,91.71
2022-11-05T00:20:09.274Z,92.29
2022-11-05T00:21:31.127Z,92.16
2022-11-05T00:22:51.588Z,92.28
2022-11-05T00:24:11.349Z,92.11
2022-11-05T00:25:18.939Z,92.12
2022-11-05T00:26:20.492Z,92.57
2022-11-05T00:27:22.108Z,92.62
2022-11-05T00:28:24.047Z,92.42
2022-11-05T00:29:25.586Z,92.46
2022-11-05T00:30:27.522Z,92.14
2022-11-05T00:31:29.076Z,92.31
2022-11-05T00:32:30.836Z,92.34
2022-11-05T00:33:32.805Z,92.05
2022-11-05T00:34:34.337Z,91.94
2022-11-05T00:35:35.876Z,91.90
2022-11-05T00:36:37.416Z,91.33
2022-11-05T00:37:39.130Z,91.19
2022-11-05T00:38:40.691Z,91.12
2022-11-05T00:39:42.248Z,91.33
2022-11-05T00:40:44.837Z,90.98
2022-11-05T00:42:06.328Z,91.19
2022-11-05T00:43:26.471Z,90.89
2022-11-05T00:44:46.257Z,91.16
2022-11-05T00:45:47.808Z,91.00
2022-11-05T00:46:49.360Z,90.71
2022-11-05T00:48:09.405Z,90.87
2022-11-05T00:49:32.057Z,91.04
2022-11-05T00:50:33.856Z,91.04
2022-11-05T00:51:35.408Z,90.96
2022-11-05T00:52:55.670Z,91.19
2022-11-05T00:53:57.217Z,91.23
2022-11-05T00:54:58.759Z,91.06
2022-11-05T00:56:00.763Z,91.51
2022-11-05T00:57:04.730Z,91.58
2022-11-05T00:58:14.475Z,91.04
2022-11-05T00:59:16.080Z,91.30
2022-11-05T01:00:17.854Z,91.27
2022-11-05T01:01:19.464Z,91.55
2022-11-05T01:02:21.252Z,91.47
2022-11-05T01:03:33.734Z,91.04
2022-11-05T01:04:35.564Z,91.18
2022-11-05T01:05:42.886Z,91.12
2022-11-05T01:06:44.434Z,91.45
2022-11-05T01:07:46.045Z,91.29
2022-11-05T01:08:47.723Z,91.07
2022-11-05T01:09:49.301Z,91.34
2022-11-05T01:10:52.816Z,91.19
2022-11-05T01:11:55.795Z,91.34
2022-11-05T01:12:57.413Z,91.26
2022-11-05T01:14:02.470Z,91.24
2022-11-05T01:15:04.295Z,91.36
2022-11-05T01:16:09.892Z,91.30
2022-11-05T01:17:11.418Z,91.39
2022-11-05T01:18:13.178Z,91.28
2022-11-05T01:19:14.882Z,91.36
2022-11-05T01:20:16.644Z,91.26
2022-11-05T01:21:18.278Z,91.57
2022-11-05T01:22:19.855Z,91.59
2022-11-05T01:23:21.746Z,91.21
2022-11-05T01:24:23.565Z,91.88
2022-11-05T01:25:25.243Z,91.60
2022-11-05T01:26:26.933Z,91.39
2022-11-05T01:27:28.467Z,91.66
2022-11-05T01:28:30.100Z,91.58
2022-11-05T01:29:31.714Z,91.78
2022-11-05T01:30:33.484Z,91.58
2022-11-05T01:31:35.012Z,91.76
2022-11-05T01:32:36.900Z,91.63
2022-11-05T01:33:38.445Z,91.40
2022-11-05T01:34:40.014Z,91.58
2022-11-05T01:35:41.553Z,91.69
2022-11-05T01:36:43.180Z,91.81
2022-11-05T01:37:44.771Z,91.78
2022-11-05T01:38:46.351Z,91.41
2022-11-05T01:39:47.903Z,91.88
2022-11-05T01:40:49.468Z,91.72
2022-11-05T01:41:51.081Z,91.75
2022-11-05T01:42:52.761Z,92.06
2022-11-05T01:43:56.485Z,91.98
2022-11-05T01:45:07.223Z,91.96
2022-11-05T01:46:08.754Z,91.93
2022-11-05T01:47:13.103Z,91.99
2022-11-05T01:48:17.120Z,91.87
2022-11-05T01:49:29.277Z,92.13
2022-11-05T01:50:35.101Z,91.73
2022-11-05T01:51:36.689Z,92.35
2022-11-05T01:52:38.506Z,92.15
2022-11-05T01:53:46.658Z,92.40
2022-11-05T01:54:48.264Z,92.56
2022-11-05T01:55:54.973Z,92.36
2022-11-05T01:56:59.702Z,92.32
2022-11-05T01:58:01.681Z,92.39
2022-11-05T01:59:14.301Z,92.27
2022-11-05T02:00:16.938Z,92.14
2022-11-05T02:01:18.641Z,92.21
2022-11-05T02:02:20.414Z,92.35
2022-11-05T02:03:22.114Z,92.44
2022-11-05T02:04:30.153Z,92.26
2022-11-05T02:05:31.744Z,92.10
2022-11-05T02:06:34.968Z,92.25
2022-11-05T02:07:36.500Z,92.23
2022-11-05T02:09:04.678Z,92.23
2022-11-05T02:10:10.101Z,92.12
2022-11-05T02:11:13.383Z,92.58
2022-11-05T02:12:15.010Z,92.75
2022-11-05T02:13:16.944Z,92.69
2022-11-05T02:14:18.833Z,92.65
2022-11-05T02:16:06.897Z,92.59
2022-11-05T02:17:17.028Z,92.76
2022-11-05T02:18:32.194Z,92.60
2022-11-05T02:20:09.761Z,92.52
2022-11-05T02:21:38.778Z,92.71
2022-11-05T02:22:57.435Z,92.92
2022-11-05T02:24:06.595Z,92.94
2022-11-05T02:25:43.314Z,93.17
2022-11-05T02:27:20.505Z,93.02
2022-11-05T02:28:39.022Z,93.30
2022-11-05T02:29:43.343Z,93.18
2022-11-05T02:30:55.503Z,93.29
2022-11-05T02:32:13.307Z,93.20
2022-11-05T02:33:32.926Z,93.44
2022-11-05T02:34:40.244Z,93.40
2022-11-05T02:35:58.647Z,93.65
2022-11-05T02:37:10.219Z,93.69
2022-11-05T02:38:35.854Z,93.87
2022-11-05T02:39:52.931Z,93.70
2022-11-05T02:41:03.311Z,93.74
2022-11-05T02:42:26.762Z,93.69
2022-11-05T02:43:37.893Z,93.60
2022-11-05T02:44:57.546Z,93.54
2022-11-05T02:46:26.850Z,93.67
2022-11-05T02:47:50.125Z,93.30
2022-11-05T02:49:03.738Z,93.38
2022-11-05T02:50:14.844Z,93.59
2022-11-05T02:51:31.308Z,93.48
2022-11-05T02:52:55.533Z,93.42
2022-11-05T02:54:22.354Z,93.58
2022-11-05T02:55:29.567Z,93.46
2022-11-05T02:56:32.997Z,93.69
2022-11-05T02:57:36.344Z,93.37
2022-11-05T02:58:37.925Z,93.27
2022-11-05T02:59:39.517Z,93.14
2022-11-05T03:00:44.091Z,93.35
2022-11-05T03:01:46.220Z,93.69
2022-11-05T03:02:47.987Z,93.53
2022-11-05T03:03:54.413Z,93.58
2022-11-05T03:04:56.012Z,93.57
2022-11-05T03:06:28.138Z,93.66
2022-11-05T03:07:42.333Z,93.62
2022-11-05T03:09:10.005Z,93.51
2022-11-05T03:11:02.596Z,93.59
2022-11-05T03:12:06.838Z,93.71
2022-11-05T03:13:17.006Z,93.75
2022-11-05T03:14:49.374Z,93.53
2022-11-05T03:16:03.082Z,93.36
2022-11-05T03:17:23.307Z,93.62
2022-11-05T03:18:26.505Z,93.65
2022-11-05T03:19:28.003Z,93.64
2022-11-05T03:20:31.252Z,93.52
2022-11-05T03:21:38.887Z,93.45
2022-11-05T03:22:47.018Z,93.53
2022-11-05T03:23:56.073Z,93.83
2022-11-05T03:25:02.797Z,93.58
2022-11-05T03:26:27.655Z,93.29
2022-11-05T03:27:33.619Z,93.32
2022-11-05T03:28:38.058Z,93.24
2022-11-05T03:29:42.884Z,93.43
2022-11-05T03:30:44.522Z,93.40
2022-11-05T03:31:46.078Z,93.09
2022-11-05T03:32:55.036Z,93.06
2022-11-05T03:33:56.656Z,92.81
2022-11-05T03:35:23.212Z,93.01
2022-11-05T03:36:31.069Z,92.68
2022-11-05T03:37:33.904Z,92.61
2022-11-05T03:38:37.377Z,92.70
2022-11-05T03:39:47.482Z,92.33
2022-11-05T03:40:50.648Z,92.11
2022-11-05T03:41:52.428Z,92.34
2022-11-05T03:42:55.476Z,92.41
2022-11-05T03:43:58.490Z,92.34
2022-11-05T03:45:00.774Z,92.24
2022-11-05T03:46:05.294Z,92.00
2022-11-05T03:47:09.192Z,92.07
2022-11-05T03:48:11.157Z,92.15
2022-11-05T03:49:15.715Z,91.95
2022-11-05T03:50:41.635Z,92.01
2022-11-05T03:51:56.183Z,91.88
2022-11-05T03:53:07.430Z,92.33
2022-11-05T03:54:09.102Z,91.87
2022-11-05T03:55:10.654Z,92.13
2022-11-05T03:56:18.368Z,92.18
2022-11-05T03:57:27.799Z,91.88
2022-11-05T03:58:29.335Z,92.13
2022-11-05T03:59:31.275Z,91.91
2022-11-05T04:00:32.819Z,91.42
2022-11-05T04:01:36.601Z,92.07
2022-11-05T04:02:38.729Z,91.89
2022-11-05T04:03:40.426Z,91.82
2022-11-05T04:04:42.092Z,91.80
2022-11-05T04:05:43.645Z,91.72
2022-11-05T04:07:03.814Z,91.77
2022-11-05T04:08:24.004Z,91.64
2022-11-05T04:09:44.187Z,91.35
2022-11-05T04:11:06.044Z,91.41
2022-11-05T04:12:28.054Z,91.56
2022-11-05T04:13:29.631Z,91.55
2022-11-05T04:14:31.184Z,91.60
2022-11-05T04:15:55.937Z,91.63
2022-11-05T04:17:06.398Z,91.54
2022-11-05T04:18:08.010Z,91.62
2022-11-05T04:19:09.543Z,91.54
2022-11-05T04:20:29.447Z,91.27
2022-11-05T04:21:49.654Z,91.44
2022-11-05T04:23:16.954Z,91.43
2022-11-05T04:24:18.558Z,91.13
2022-11-05T04:25:20.474Z,90.98
2022-11-05T04:26:23.471Z,91.36
2022-11-05T04:27:25.362Z,90.92
2022-11-05T04:28:46.865Z,90.87
2022-11-05T04:30:07.185Z,91.04
2022-11-05T04:31:08.850Z,90.95
2022-11-05T04:32:10.389Z,90.73
2022-11-05T04:33:15.891Z,90.40
2022-11-05T04:34:18.935Z,90.48
2022-11-05T04:35:20.570Z,90.74
2022-11-05T04:36:22.140Z,90.69
2022-11-05T04:37:23.678Z,90.32
2022-11-05T04:38:25.299Z,90.48
2022-11-05T04:39:26.988Z,90.67
2022-11-05T04:40:28.834Z,90.53
2022-11-05T04:41:30.424Z,89.86
2022-11-05T04:42:31.976Z,90.20
2022-11-05T04:43:33.565Z,90.31
2022-11-05T04:44:35.199Z,90.45
2022-11-05T04:45:36.755Z,90.49
2022-11-05T04:46:38.320Z,90.44
2022-11-05T04:47:39.863Z,90.54
2022-11-05T04:48:41.413Z,90.24
2022-11-05T04:49:43.006Z,90.24
2022-11-05T04:50:44.574Z,90.20
2022-11-05T04:51:46.126Z,89.92
2022-11-05T04:52:47.665Z,89.87
2022-11-05T04:53:49.194Z,89.93
2022-11-05T04:54:50.903Z,90.03
2022-11-05T04:55:52.440Z,89.37
2022-11-05T04:56:54.007Z,89.59
2022-11-05T04:57:55.638Z,89.72
2022-11-05T04:58:57.208Z,89.70
2022-11-05T04:59:58.833Z,90.01
2022-11-05T05:01:00.465Z,90.33
2022-11-05T05:02:02.100Z,90.77
2022-11-05T05:03:03.740Z,89.88
2022-11-05T05:04:05.312Z,90.01
2022-11-05T05:05:07.187Z,90.17
2022-11-05T05:06:08.958Z,89.73
2022-11-05T05:07:10.524Z,89.32
2022-11-05T05:08:12.125Z,89.70
2022-11-05T05:09:13.680Z,90.04
2022-11-05T05:10:15.236Z,89.52
2022-11-05T05:11:18.353Z,89.65
2022-11-05T05:12:19.950Z,89.51
2022-11-05T05:13:21.592Z,89.50
2022-11-05T05:14:23.128Z,89.50
2022-11-05T05:15:24.754Z,89.27
2022-11-05T05:16:26.783Z,89.86
2022-11-05T05:17:28.351Z,89.67
2022-11-05T05:18:29.890Z,88.87
2022-11-05T05:19:51.388Z,89.12
2022-11-05T05:21:16.455Z,89.72
2022-11-05T05:22:17.999Z,89.72
2022-11-05T05:23:19.556Z,89.61
2022-11-05T05:24:21.327Z,89.47
2022-11-05T05:25:22.962Z,89.18
2022-11-05T05:26:24.497Z,89.48
2022-11-05T05:27:29.363Z,89.77
2022-11-05T05:28:30.902Z,89.60
2022-11-05T05:29:32.533Z,89.52
2022-11-05T05:30:34.456Z,89.62
2022-11-05T05:31:36.232Z,89.10
2022-11-05T05:32:37.772Z,89.34
2022-11-05T05:33:39.301Z,89.40
2022-11-05T05:34:40.902Z,89.53
2022-11-05T05:35:42.503Z,89.28
2022-11-05T05:36:44.083Z,89.24
2022-11-05T05:37:45.791Z,88.95
2022-11-05T05:38:47.336Z,89.66
2022-11-05T05:39:50.271Z,89.41
2022-11-05T05:40:51.929Z,89.21
2022-11-05T05:41:53.607Z,89.33
2022-11-05T05:42:55.642Z,89.11
2022-11-05T05:43:57.202Z,89.01
2022-11-05T05:44:58.731Z,89.13
2022-11-05T05:46:08.560Z,89.30
2022-11-05T05:47:10.186Z,89.41
2022-11-05T05:48:11.751Z,88.78
2022-11-05T05:49:13.513Z,88.38
2022-11-05T05:50:15.134Z,88.78
2022-11-05T05:51:16.867Z,89.47
2022-11-05T05:52:18.558Z,89.10
2022-11-05T05:53:20.091Z,88.84
2022-11-05T05:54:26.317Z,88.77
2022-11-05T05:55:30.763Z,88.76
2022-11-05T05:56:32.297Z,88.66
2022-11-05T05:57:34.219Z,88.47
2022-11-05T05:58:37.217Z,88.09
2022-11-05T05:59:38.831Z,88.46
2022-11-05T06:00:40.395Z,88.12
2022-11-05T06:01:42.158Z,88.22
2022-11-05T06:02:43.915Z,88.26
2022-11-05T06:03:45.640Z,88.41
2022-11-05T06:04:47.246Z,88.45
2022-11-05T06:05:48.817Z,88.38
2022-11-05T06:06:50.431Z,88.57
2022-11-05T06:07:58.099Z,88.09
2022-11-05T06:08:59.695Z,88.65
2022-11-05T06:10:01.282Z,87.98
2022-11-05T06:11:03.911Z,88.13
2022-11-05T06:12:05.776Z,88.10
2022-11-05T06:13:07.342Z,88.22
2022-11-05T06:14:12.356Z,88.01
2022-11-05T06:15:13.990Z,88.11
2022-11-05T06:16:15.769Z,88.16
2022-11-05T06:17:17.310Z,88.19
2022-11-05T06:18:18.872Z,88.42
2022-11-05T06:19:20.406Z,87.95
2022-11-05T06:20:22.280Z,87.69
2022-11-05T06:21:23.831Z,88.04
2022-11-05T06:22:25.412Z,87.80
2022-11-05T06:23:26.970Z,88.06
2022-11-05T06:24:28.523Z,88.35
2022-11-05T06:25:30.134Z,88.23
2022-11-05T06:26:31.754Z,88.15
2022-11-05T06:27:33.354Z,88.23
2022-11-05T06:28:34.986Z,88.21
2022-11-05T06:29:36.513Z,88.29
2022-11-05T06:30:38.176Z,88.21
2022-11-05T06:31:39.896Z,88.42
2022-11-05T06:32:41.476Z,88.08
2022-11-05T06:33:43.095Z,88.16
2022-11-05T06:34:44.629Z,88.14
2022-11-05T06:35:46.257Z,87.99
2022-11-05T06:36:47.794Z,87.75
2022-11-05T06:37:49.464Z,87.99
2022-11-05T06:38:51.038Z,88.00
2022-11-05T06:39:52.630Z,87.63
2022-11-05T06:40:54.191Z,87.95
2022-11-05T06:43:17.339Z,87.21
2022-11-05T06:44:18.931Z,87.18
2022-11-05T06:45:20.804Z,87.26
2022-11-05T06:46:22.329Z,87.39
2022-11-05T06:47:23.939Z,87.60
2022-11-05T06:48:25.694Z,87.51
2022-11-05T06:49:27.316Z,86.68
2022-11-05T06:50:28.922Z,86.65
2022-11-05T06:51:30.630Z,86.48
2022-11-05T06:52:35.883Z,86.19
2022-11-05T06:53:40.026Z,86.63
2022-11-05T06:54:42.432Z,86.71
2022-11-05T06:55:45.007Z,86.32
2022-11-05T06:56:46.613Z,86.40
2022-11-05T06:57:48.174Z,86.58
2022-11-05T06:58:49.743Z,86.31
2022-11-05T06:59:53.573Z,86.12
2022-11-05T07:01:08.132Z,85.71
2022-11-05T07:02:10.640Z,85.59
2022-11-05T07:03:13.001Z,85.84
2022-11-05T07:04:15.091Z,85.53
2022-11-05T07:05:17.021Z,85.27
2022-11-05T07:06:18.596Z,85.64
2022-11-05T07:07:20.155Z,85.95
2022-11-05T07:08:21.768Z,85.79
2022-11-05T07:09:23.738Z,85.83
2022-11-05T07:10:25.346Z,86.20
2022-11-05T07:11:26.954Z,86.00
2022-11-05T07:12:28.578Z,85.51
2022-11-05T07:13:30.225Z,86.02
2022-11-05T07:14:31.831Z,85.40
2022-11-05T07:15:33.401Z,84.68
2022-11-05T07:16:35.005Z,85.12
2022-11-05T07:17:36.598Z,85.55
2022-11-05T07:18:38.235Z,84.97
2022-11-05T07:19:39.785Z,85.21
2022-11-05T07:20:41.423Z,85.03
2022-11-05T07:21:42.984Z,85.05
2022-11-05T07:22:44.529Z,85.32
2022-11-05T07:23:46.080Z,85.25
2022-11-05T07:24:49.496Z,84.87
2022-11-05T07:25:51.149Z,85.01
2022-11-05T07:26:52.758Z,84.73
2022-11-05T07:27:54.312Z,84.40
2022-11-05T07:28:55.868Z,84.86
2022-11-05T07:29:57.971Z,84.14
2022-11-05T07:30:59.689Z,84.75
2022-11-05T07:32:01.254Z,84.59
2022-11-05T07:33:03.121Z,84.48
2022-11-05T07:34:04.754Z,84.27
2022-11-05T07:35:07.927Z,85.33
2022-11-05T07:36:09.810Z,84.98
2022-11-05T07:37:11.425Z,84.60
2022-11-05T07:38:13.243Z,84.39
2022-11-05T07:39:14.832Z,84.90
2022-11-05T07:40:18.455Z,85.15
2022-11-05T07:41:20.019Z,84.91
2022-11-05T07:42:21.664Z,84.82
2022-11-05T07:43:23.207Z,85.01
2022-11-05T07:44:24.756Z,85.12
2022-11-05T07:45:27.118Z,84.90
2022-11-05T07:46:28.697Z,85.46
2022-11-05T07:47:30.315Z,85.07
2022-11-05T07:48:31.911Z,85.33
2022-11-05T07:49:33.492Z,84.90
2022-11-05T07:50:35.986Z,84.87
2022-11-05T07:51:37.527Z,84.69
2022-11-05T07:52:39.206Z,84.84
2022-11-05T07:53:45.095Z,84.89
2022-11-05T07:54:47.216Z,85.22
2022-11-05T07:55:48.817Z,84.81
2022-11-05T07:56:50.363Z,84.54
2022-11-05T07:57:52.075Z,84.69
2022-11-05T07:58:53.636Z,84.54
2022-11-05T07:59:55.189Z,84.54
2022-11-05T08:00:57.441Z,84.88
2022-11-05T08:01:59.513Z,84.42
2022-11-05T08:03:15.385Z,84.91
2022-11-05T08:04:17.143Z,84.53
2022-11-05T08:05:18.708Z,85.05
2022-11-05T08:06:20.565Z,84.37
2022-11-05T08:07:22.120Z,84.34
2022-11-05T08:08:23.721Z,84.22
2022-11-05T08:09:26.199Z,84.74
2022-11-05T08:10:27.839Z,84.83
2022-11-05T08:11:29.478Z,85.08
2022-11-05T08:12:32.755Z,85.24
2022-11-05T08:13:34.577Z,84.59
2022-11-05T08:14:36.133Z,83.93
2022-11-05T08:15:37.749Z,84.43
2022-11-05T08:16:39.403Z,83.78
2022-11-05T08:17:41.859Z,84.33
2022-11-05T08:18:44.730Z,84.23
2022-11-05T08:19:46.272Z,84.56
2022-11-05T08:20:47.955Z,83.38
2022-11-05T08:21:49.509Z,83.69
2022-11-05T08:22:51.049Z,84.28
2022-11-05T08:23:52.596Z,83.83
2022-11-05T08:24:54.154Z,84.10
2022-11-05T08:25:56.320Z,84.48
2022-11-05T08:26:57.880Z,83.67
2022-11-05T08:28:03.913Z,82.88
2022-11-05T08:29:05.461Z,83.41
2022-11-05T08:30:07.873Z,83.63
2022-11-05T08:31:09.553Z,83.96
2022-11-05T08:32:11.105Z,82.68
2022-11-05T08:33:14.189Z,82.66
2022-11-05T08:34:15.944Z,83.04
2022-11-05T08:35:17.557Z,82.32
2022-11-05T08:36:19.169Z,82.97
2022-11-05T08:37:20.724Z,82.55
2022-11-05T08:38:22.309Z,82.91
2022-11-05T08:39:23.870Z,82.54
2022-11-05T08:40:26.175Z,82.45
2022-11-05T08:41:27.766Z,83.14
2022-11-05T08:42:29.441Z,83.16
2022-11-05T08:43:31.010Z,83.41
2022-11-05T08:44:32.595Z,83.32
2022-11-05T08:45:34.589Z,82.29
2022-11-05T08:46:41.397Z,81.74
2022-11-05T08:47:43.332Z,82.62
2022-11-05T08:48:44.947Z,82.24
2022-11-05T08:49:46.561Z,81.64
2022-11-05T08:50:48.651Z,81.67
2022-11-05T08:51:50.188Z,82.30
2022-11-05T08:52:51.752Z,82.46
2022-11-05T08:53:53.299Z,81.61
2022-11-05T08:54:54.866Z,81.76
2022-11-05T08:55:59.367Z,82.61
2022-11-05T08:57:00.944Z,81.48
2022-11-05T08:58:04.477Z,81.88
2022-11-05T08:59:06.191Z,81.87
2022-11-05T09:00:08.711Z,82.54
2022-11-05T09:01:10.507Z,82.36
2022-11-05T09:02:12.349Z,81.92
2022-11-05T09:03:14.495Z,82.25
2022-11-05T09:04:16.450Z,81.60
2022-11-05T09:05:18.105Z,81.36
2022-11-05T09:06:22.510Z,81.49
2022-11-05T09:07:24.096Z,81.88
2022-11-05T09:08:25.698Z,81.75
2022-11-05T09:09:27.320Z,80.98
2022-11-05T09:10:28.930Z,81.50
2022-11-05T09:11:49.937Z,81.94
2022-11-05T09:12:52.060Z,81.50
2022-11-05T09:13:53.725Z,81.42
2022-11-05T09:14:55.306Z,81.65
2022-11-05T09:15:57.638Z,81.22
2022-11-05T09:16:59.293Z,81.04
2022-11-05T09:18:02.092Z,81.01
2022-11-05T09:19:04.754Z,81.09
2022-11-05T09:20:07.623Z,81.31
2022-11-05T09:21:09.352Z,81.26
2022-11-05T09:22:12.811Z,81.20
2022-11-05T09:23:17.364Z,81.10
2022-11-05T09:24:18.984Z,81.31
2022-11-05T09:25:20.604Z,81.23
2022-11-05T09:26:22.221Z,80.54
2022-11-05T09:27:23.916Z,79.84
2022-11-05T09:28:25.634Z,80.26
2022-11-05T09:29:27.256Z,79.58
2022-11-05T09:30:29.105Z,80.26
2022-11-05T09:31:30.647Z,80.80
2022-11-05T09:32:32.381Z,79.29
2022-11-05T09:33:34.546Z,79.67
2022-11-05T09:34:36.183Z,80.01
2022-11-05T09:35:39.459Z,79.62
2022-11-05T09:36:41.076Z,79.86
2022-11-05T09:37:42.628Z,80.22
2022-11-05T09:38:44.257Z,80.43
2022-11-05T09:39:45.861Z,80.58
2022-11-05T09:40:59.480Z,79.75
2022-11-05T09:42:02.838Z,79.36
2022-11-05T09:43:04.630Z,79.49
2022-11-05T09:44:11.576Z,80.21
2022-11-05T09:45:20.268Z,80.43
2022-11-05T09:46:25.998Z,80.38
2022-11-05T09:47:38.514Z,80.33
2022-11-05T09:48:40.102Z,80.46
2022-11-05T09:49:44.427Z,80.33
2022-11-05T09:50:46.217Z,79.57
2022-11-05T09:51:47.781Z,79.71
2022-11-05T09:52:49.333Z,79.87
2022-11-05T09:53:51.214Z,79.47
2022-11-05T09:54:53.096Z,78.86
2022-11-05T09:55:56.327Z,79.12
2022-11-05T09:56:58.020Z,79.45
2022-11-05T09:58:01.020Z,79.49
2022-11-05T09:59:10.818Z,78.90
2022-11-05T10:00:16.548Z,79.57
2022-11-05T10:01:22.373Z,79.85
2022-11-05T10:02:24.033Z,80.20
2022-11-05T10:03:26.624Z,79.37
2022-11-05T10:04:28.228Z,79.75
2022-11-05T10:05:29.831Z,80.28
2022-11-05T10:06:31.671Z,79.07
2022-11-05T10:07:37.542Z,79.32
2022-11-05T10:08:41.874Z,79.83
2022-11-05T10:09:55.675Z,80.14
2022-11-05T10:11:23.966Z,80.18
2022-11-05T10:12:51.004Z,78.92
2022-11-05T10:13:56.301Z,79.60
2022-11-05T10:15:13.154Z,79.52
2022-11-05T10:16:31.740Z,79.65
2022-11-05T10:17:38.798Z,80.19
2022-11-05T10:18:41.623Z,79.37
2022-11-05T10:19:48.116Z,78.80
2022-11-05T10:20:49.727Z,79.21
2022-11-05T10:22:10.956Z,79.36
2022-11-05T10:23:13.739Z,79.61
2022-11-05T10:24:17.623Z,80.17
2022-11-05T10:25:20.205Z,79.60
2022-11-05T10:26:23.281Z,80.27
2022-11-05T10:27:33.375Z,79.80
2022-11-05T10:28:35.103Z,78.94
2022-11-05T10:29:36.816Z,78.83
2022-11-05T10:30:38.653Z,78.64
2022-11-05T10:31:40.191Z,78.62
2022-11-05T10:32:41.813Z,79.03
2022-11-05T10:34:03.531Z,79.49
2022-11-05T10:35:07.107Z,78.58
2022-11-05T10:36:23.562Z,77.90
2022-11-05T10:37:25.130Z,78.47
2022-11-05T10:38:27.622Z,78.94
2022-11-05T10:39:29.331Z,79.47
2022-11-05T10:40:55.467Z,79.33
2022-11-05T10:42:06.856Z,78.99
2022-11-05T10:43:40.989Z,79.02
2022-11-05T10:44:52.553Z,78.91
2022-11-05T10:45:54.082Z,79.20
2022-11-05T10:47:13.947Z,79.24
2022-11-05T10:48:43.863Z,79.34
2022-11-05T10:49:58.698Z,79.42
2022-11-05T10:51:00.255Z,79.13
2022-11-05T10:52:20.016Z,77.94
2022-11-05T10:53:24.847Z,78.56
2022-11-05T10:54:31.350Z,78.62
2022-11-05T10:55:36.954Z,78.79
2022-11-05T10:56:39.829Z,78.21
2022-11-05T10:57:41.591Z,77.90
2022-11-05T10:58:54.295Z,78.38
2022-11-05T11:00:15.089Z,78.10
2022-11-05T11:01:24.085Z,78.12
2022-11-05T11:02:27.058Z,77.84
2022-11-05T11:03:48.558Z,79.01
2022-11-05T11:04:53.305Z,78.55
2022-11-05T11:06:02.936Z,78.75
2022-11-05T11:07:04.504Z,78.82
2022-11-05T11:08:08.907Z,78.79
2022-11-05T11:09:19.509Z,78.74
2022-11-05T11:10:21.848Z,79.07
2022-11-05T11:11:30.620Z,78.14
2022-11-05T11:12:40.912Z,78.30
2022-11-05T11:13:59.566Z,78.40
2022-11-05T11:15:02.438Z,79.26
2022-11-05T11:16:15.950Z,79.27
2022-11-05T11:17:31.010Z,78.85
2022-11-05T11:18:40.415Z,78.59
2022-11-05T11:19:42.157Z,79.02
2022-11-05T11:20:44.728Z,79.88
2022-11-05T11:21:46.285Z,79.65
2022-11-05T11:23:15.814Z,79.42
2022-11-05T11:24:23.131Z,78.92
2022-11-05T11:25:26.350Z,78.79
2022-11-05T11:26:36.530Z,78.84
2022-11-05T11:27:38.085Z,78.71
2022-11-05T11:28:54.086Z,78.76
2022-11-05T11:30:02.442Z,78.89
2022-11-05T11:31:15.258Z,79.35
2022-11-05T11:32:20.546Z,79.94
2022-11-05T11:33:23.319Z,79.43
2022-11-05T11:34:31.054Z,79.32
2022-11-05T11:35:32.677Z,78.65
2022-11-05T11:36:44.720Z,79.33
2022-11-05T11:37:46.309Z,78.82
2022-11-05T11:38:47.863Z,79.32
2022-11-05T11:39:57.825Z,79.09
2022-11-05T11:41:28.082Z,79.35
2022-11-05T11:42:36.095Z,79.63
2022-11-05T11:43:40.204Z,79.50
2022-11-05T11:44:44.616Z,79.58
2022-11-05T11:45:50.875Z,79.23
2022-11-05T11:46:53.742Z,79.37
2022-11-05T11:47:55.734Z,78.69
2022-11-05T11:48:57.634Z,78.55
2022-11-05T11:50:00.368Z,79.09
2022-11-05T11:51:20.531Z,79.73
2022-11-05T11:52:30.376Z,79.71
2022-11-05T11:53:35.515Z,79.42
2022-11-05T11:54:37.057Z,78.91
2022-11-05T11:55:38.606Z,78.47
2022-11-05T11:56:44.631Z,78.70
2022-11-05T11:57:53.938Z,78.91
2022-11-05T11:58:57.049Z,79.18
2022-11-05T12:00:14.097Z,79.08
2022-11-05T12:01:30.631Z,79.48
2022-11-05T12:02:43.359Z,79.64
2022-11-05T12:03:49.450Z,79.87
2022-11-05T12:05:01.772Z,79.69
2022-11-05T12:06:21.016Z,79.35
2022-11-05T12:07:36.214Z,79.29
2022-11-05T12:08:59.283Z,79.20
2022-11-05T12:10:18.632Z,79.15
2022-11-05T12:11:30.001Z,79.58
2022-11-05T12:13:16.590Z,80.13
2022-11-05T12:14:24.130Z,79.95
2022-11-05T12:15:44.688Z,79.63
2022-11-05T12:16:50.938Z,79.26
2022-11-05T12:17:59.867Z,79.48
2022-11-05T12:19:07.774Z,78.85
2022-11-05T12:20:40.406Z,78.79
2022-11-05T12:21:52.634Z,78.60
2022-11-05T12:23:08.609Z,78.88
2022-11-05T12:24:22.221Z,79.25
2022-11-05T12:25:39.322Z,79.78
2022-11-05T12:26:50.555Z,79.30
2022-11-05T12:28:04.053Z,79.06
2022-11-05T12:29:35.542Z,78.54
2022-11-05T12:30:47.540Z,78.48
2022-11-05T12:32:30.314Z,78.39
2022-11-05T12:33:50.569Z,78.34
2022-11-05T12:35:10.903Z,78.79
2022-11-05T12:36:23.030Z,79.15
2022-11-05T12:37:49.556Z,78.63
2022-11-05T12:39:22.306Z,78.53
2022-11-05T12:40:59.091Z,78.39
2022-11-05T12:42:22.546Z,78.35
2022-11-05T12:43:32.060Z,78.39
2022-11-05T12:44:47.655Z,78.30
2022-11-05T12:45:59.360Z,78.22
2022-11-05T12:47:18.812Z,79.09
2022-11-05T12:48:43.090Z,78.79
2022-11-05T12:49:51.027Z,79.04
2022-11-05T12:50:53.309Z,79.38
2022-11-05T12:52:04.181Z,78.65
2022-11-05T12:53:30.795Z,78.66
2022-11-05T12:54:40.855Z,78.77
2022-11-05T12:55:48.729Z,78.34
2022-11-05T12:56:56.830Z,78.64
2022-11-05T12:58:05.984Z,79.10
2022-11-05T12:59:30.691Z,78.81
2022-11-05T13:00:32.634Z,79.81
2022-11-05T13:01:37.165Z,79.43
2022-11-05T13:03:02.199Z,78.85
2022-11-05T13:04:17.644Z,79.34
2022-11-05T13:05:48.659Z,79.63
2022-11-05T13:06:51.424Z,79.47
2022-11-05T13:07:57.026Z,78.88
2022-11-05T13:09:17.628Z,78.64
2022-11-05T13:10:33.291Z,78.49
2022-11-05T13:11:39.952Z,78.89
2022-11-05T13:12:41.550Z,79.06
2022-11-05T13:14:02.765Z,79.60
2022-11-05T13:15:10.758Z,79.21
2022-11-05T13:16:29.572Z,79.37
2022-11-05T13:17:36.502Z,79.13
2022-11-05T13:19:00.526Z,79.07
2022-11-05T13:20:32.678Z,79.01
2022-11-05T13:21:34.337Z,79.17
2022-11-05T13:22:37.568Z,79.47
2022-11-05T13:23:45.654Z,79.31
2022-11-05T13:24:51.283Z,79.14
2022-11-05T13:25:56.214Z,79.38
2022-11-05T13:27:21.961Z,80.05
2022-11-05T13:28:23.649Z,79.78
2022-11-05T13:29:34.775Z,79.40
2022-11-05T13:30:38.347Z,79.61
2022-11-05T13:31:50.490Z,79.64
2022-11-05T13:32:56.595Z,79.77
2022-11-05T13:33:59.016Z,79.71
2022-11-05T13:35:02.469Z,79.89
2022-11-05T13:36:34.242Z,80.26
2022-11-05T13:37:58.188Z,79.71
2022-11-05T13:39:09.241Z,79.98
2022-11-05T13:40:12.188Z,79.58
2022-11-05T13:41:31.356Z,79.47
2022-11-05T13:43:17.346Z,79.57
2022-11-05T13:44:30.236Z,79.82
2022-11-05T13:45:53.731Z,80.24
2022-11-05T13:47:18.157Z,80.14
2022-11-05T13:48:45.781Z,79.81
2022-11-05T13:49:58.857Z,79.82
2022-11-05T13:51:12.658Z,79.58
2022-11-05T13:52:32.709Z,79.62
2022-11-05T13:54:12.252Z,80.20
2022-11-05T13:55:44.409Z,80.32
2022-11-05T13:57:19.727Z,80.04
2022-11-05T13:58:47.182Z,80.88
2022-11-05T14:00:18.954Z,81.03
2022-11-05T14:01:45.674Z,80.68
2022-11-05T14:03:17.680Z,81.12
2022-11-05T14:04:34.800Z,80.33
2022-11-05T14:05:38.248Z,80.59
2022-11-05T14:06:39.809Z,80.61
2022-11-05T14:07:45.135Z,80.49
2022-11-05T14:08:46.735Z,80.40
2022-11-05T14:10:26.328Z,80.31
2022-11-05T14:11:38.472Z,80.23
2022-11-05T14:12:40.358Z,80.24
2022-11-05T14:13:43.314Z,80.54
2022-11-05T14:14:47.048Z,80.26
2022-11-05T14:15:57.126Z,80.58
2022-11-05T14:17:07.514Z,80.61
2022-11-05T14:18:24.319Z,80.09
2022-11-05T14:19:29.856Z,80.19
2022-11-05T14:20:31.420Z,80.32
2022-11-05T14:21:45.578Z,80.44
2022-11-05T14:22:47.178Z,80.65
2022-11-05T14:24:15.889Z,80.54
2022-11-05T14:25:17.743Z,80.19
2022-11-05T14:26:21.344Z,80.67
2022-11-05T14:27:25.496Z,80.64